sensor_id;sensor_type;location;lat;lon;timestamp;pressure;altitude;pressure_sealevel;temperature;humidity
46199;BME280;31928;52.104;10.030;2023-05-29T00:00:33;101042.78;;;19.92;34.78
46199;BME280;31928;52.104;10.030;2023-05-29T00:03:00;101043.78;;;19.86;34.79
46199;BME280;31928;52.104;10.030;2023-05-29T00:05:28;101046.44;;;19.81;34.56
46199;BME280;31928;52.104;10.030;2023-05-29T00:07:54;101043.69;;;19.76;34.62
46199;BME280;31928;52.104;10.030;2023-05-29T00:10:22;101050.16;;;19.70;35.00
46199;BME280;31928;52.104;10.030;2023-05-29T00:12:48;101050.09;;;19.65;34.66
46199;BME280;31928;52.104;10.030;2023-05-29T00:15:15;101042.94;;;19.59;34.99
46199;BME280;31928;52.104;10.030;2023-05-29T00:17:42;101032.25;;;19.53;34.76
46199;BME280;31928;52.104;10.030;2023-05-29T00:20:09;101037.06;;;19.46;35.11
46199;BME280;31928;52.104;10.030;2023-05-29T00:22:38;101044.38;;;19.40;34.96
46199;BME280;31928;52.104;10.030;2023-05-29T00:25:05;101043.72;;;19.33;35.16
46199;BME280;31928;52.104;10.030;2023-05-29T00:27:32;101039.31;;;19.28;35.29
46199;BME280;31928;52.104;10.030;2023-05-29T00:29:59;101040.31;;;19.22;35.18
46199;BME280;31928;52.104;10.030;2023-05-29T00:32:26;101042.97;;;19.17;35.33
46199;BME280;31928;52.104;10.030;2023-05-29T00:34:54;101040.16;;;19.12;35.22
46199;BME280;31928;52.104;10.030;2023-05-29T00:37:21;101042.81;;;19.07;35.52
46199;BME280;31928;52.104;10.030;2023-05-29T00:39:48;101046.53;;;19.01;35.43
46199;BME280;31928;52.104;10.030;2023-05-29T00:42:15;101045.63;;;18.95;35.68
46199;BME280;31928;52.104;10.030;2023-05-29T00:44:41;101051.00;;;18.90;35.75
46199;BME280;31928;52.104;10.030;2023-05-29T00:47:08;101044.66;;;18.85;35.79
46199;BME280;31928;52.104;10.030;2023-05-29T00:49:35;101053.56;;;18.80;35.94
46199;BME280;31928;52.104;10.030;2023-05-29T00:52:02;101062.44;;;18.76;36.22
46199;BME280;31928;52.104;10.030;2023-05-29T00:54:30;101068.38;;;18.73;36.03
46199;BME280;31928;52.104;10.030;2023-05-29T00:56:57;101061.00;;;18.68;36.48
46199;BME280;31928;52.104;10.030;2023-05-29T00:59:25;101064.44;;;18.64;36.38
46199;BME280;31928;52.104;10.030;2023-05-29T01:01:52;101068.72;;;18.60;36.62
46199;BME280;31928;52.104;10.030;2023-05-29T01:04:20;101065.69;;;18.57;36.52
46199;BME280;31928;52.104;10.030;2023-05-29T01:06:50;101078.09;;;18.53;36.47
46199;BME280;31928;52.104;10.030;2023-05-29T01:09:17;101069.06;;;18.47;36.22
46199;BME280;31928;52.104;10.030;2023-05-29T01:12:47;101071.69;;;18.42;36.32
46199;BME280;31928;52.104;10.030;2023-05-29T01:19:58;101081.38;;;18.22;36.78
46199;BME280;31928;52.104;10.030;2023-05-29T01:25:21;101087.94;;;18.09;38.25
46199;BME280;31928;52.104;10.030;2023-05-29T01:27:49;101087.84;;;18.05;37.43
46199;BME280;31928;52.104;10.030;2023-05-29T01:30:18;101086.09;;;17.99;37.52
46199;BME280;31928;52.104;10.030;2023-05-29T01:32:45;101085.97;;;17.94;37.41
46199;BME280;31928;52.104;10.030;2023-05-29T01:35:12;101091.56;;;17.87;37.24
46199;BME280;31928;52.104;10.030;2023-05-29T01:37:38;101085.22;;;17.82;37.40
46199;BME280;31928;52.104;10.030;2023-05-29T01:40:05;101094.91;;;17.78;37.46
46199;BME280;31928;52.104;10.030;2023-05-29T01:42:32;101096.72;;;17.72;37.41
46199;BME280;31928;52.104;10.030;2023-05-29T01:44:59;101103.44;;;17.70;37.70
46199;BME280;31928;52.104;10.030;2023-05-29T01:47:26;101107.69;;;17.66;37.42
46199;BME280;31928;52.104;10.030;2023-05-29T01:49:53;101111.13;;;17.61;37.76
46199;BME280;31928;52.104;10.030;2023-05-29T01:52:20;101110.75;;;17.58;37.46
46199;BME280;31928;52.104;10.030;2023-05-29T01:54:47;101109.59;;;17.54;37.58
46199;BME280;31928;52.104;10.030;2023-05-29T01:57:14;101115.50;;;17.51;37.60
46199;BME280;31928;52.104;10.030;2023-05-29T01:59:40;101110.56;;;17.48;37.58
46199;BME280;31928;52.104;10.030;2023-05-29T02:02:08;101116.44;;;17.45;37.77
46199;BME280;31928;52.104;10.030;2023-05-29T02:04:34;101115.03;;;17.43;38.04
46199;BME280;31928;52.104;10.030;2023-05-29T02:07:01;101112.00;;;17.39;38.06
46199;BME280;31928;52.104;10.030;2023-05-29T02:09:29;101112.47;;;17.36;37.71
46199;BME280;31928;52.104;10.030;2023-05-29T02:11:55;101117.56;;;17.33;38.58
46199;BME280;31928;52.104;10.030;2023-05-29T02:14:22;101113.44;;;17.30;38.48
46199;BME280;31928;52.104;10.030;2023-05-29T02:16:50;101120.66;;;17.25;38.25
46199;BME280;31928;52.104;10.030;2023-05-29T02:19:18;101112.13;;;17.21;38.41
46199;BME280;31928;52.104;10.030;2023-05-29T02:21:46;101125.31;;;17.18;38.26
46199;BME280;31928;52.104;10.030;2023-05-29T02:24:13;101119.53;;;17.14;38.30
46199;BME280;31928;52.104;10.030;2023-05-29T02:26:39;101124.63;;;17.11;38.39
46199;BME280;31928;52.104;10.030;2023-05-29T02:29:06;101123.44;;;17.07;38.54
46199;BME280;31928;52.104;10.030;2023-05-29T02:31:33;101127.47;;;17.04;38.24
46199;BME280;31928;52.104;10.030;2023-05-29T02:33:59;101125.19;;;17.01;38.46
46199;BME280;31928;52.104;10.030;2023-05-29T02:36:26;101134.88;;;16.97;38.37
46199;BME280;31928;52.104;10.030;2023-05-29T02:38:54;101143.47;;;16.94;38.57
46199;BME280;31928;52.104;10.030;2023-05-29T02:41:20;101145.56;;;16.92;38.55
46199;BME280;31928;52.104;10.030;2023-05-29T02:43:47;101148.75;;;16.89;38.67
46199;BME280;31928;52.104;10.030;2023-05-29T02:46:13;101153.00;;;16.85;38.76
46199;BME280;31928;52.104;10.030;2023-05-29T02:48:40;101146.41;;;16.82;38.71
46199;BME280;31928;52.104;10.030;2023-05-29T02:51:07;101150.66;;;16.78;38.81
46199;BME280;31928;52.104;10.030;2023-05-29T02:53:33;101153.00;;;16.74;38.52
46199;BME280;31928;52.104;10.030;2023-05-29T02:56:00;101155.31;;;16.71;38.49
46199;BME280;31928;52.104;10.030;2023-05-29T02:58:26;101156.84;;;16.67;38.55
46199;BME280;31928;52.104;10.030;2023-05-29T03:00:53;101159.22;;;16.63;38.74
46199;BME280;31928;52.104;10.030;2023-05-29T03:03:20;101153.44;;;16.60;38.92
46199;BME280;31928;52.104;10.030;2023-05-29T03:05:47;101152.25;;;16.56;38.62
46199;BME280;31928;52.104;10.030;2023-05-29T03:08:14;101155.19;;;16.54;38.87
46199;BME280;31928;52.104;10.030;2023-05-29T03:10:40;101170.03;;;16.52;39.00
46199;BME280;31928;52.104;10.030;2023-05-29T03:13:07;101164.00;;;16.50;38.66
46199;BME280;31928;52.104;10.030;2023-05-29T03:15:33;101154.47;;;16.47;38.70
46199;BME280;31928;52.104;10.030;2023-05-29T03:18:00;101169.28;;;16.45;39.33
46199;BME280;31928;52.104;10.030;2023-05-29T03:20:26;101157.88;;;16.43;39.16
46199;BME280;31928;52.104;10.030;2023-05-29T03:22:54;101161.03;;;16.40;39.00
46199;BME280;31928;52.104;10.030;2023-05-29T03:25:21;101166.91;;;16.37;38.84
46199;BME280;31928;52.104;10.030;2023-05-29T03:27:47;101158.22;;;16.35;38.99
46199;BME280;31928;52.104;10.030;2023-05-29T03:30:14;101155.94;;;16.32;38.91
46199;BME280;31928;52.104;10.030;2023-05-29T03:32:40;101156.19;;;16.30;39.11
46199;BME280;31928;52.104;10.030;2023-05-29T03:35:07;101157.47;;;16.28;39.02
46199;BME280;31928;52.104;10.030;2023-05-29T03:37:34;101160.63;;;16.25;39.01
46199;BME280;31928;52.104;10.030;2023-05-29T03:40:01;101158.97;;;16.24;39.19
46199;BME280;31928;52.104;10.030;2023-05-29T03:42:27;101162.72;;;16.23;38.99
46199;BME280;31928;52.104;10.030;2023-05-29T03:44:54;101152.34;;;16.20;39.12
46199;BME280;31928;52.104;10.030;2023-05-29T03:47:20;101160.72;;;16.19;39.08
46199;BME280;31928;52.104;10.030;2023-05-29T03:49:47;101159.06;;;16.18;39.09
46199;BME280;31928;52.104;10.030;2023-05-29T03:52:13;101154.94;;;16.15;39.51
46199;BME280;31928;52.104;10.030;2023-05-29T03:54:40;101156.22;;;16.13;39.12
46199;BME280;31928;52.104;10.030;2023-05-29T03:57:06;101164.56;;;16.11;39.49
46199;BME280;31928;52.104;10.030;2023-05-29T03:59:33;101169.34;;;16.09;39.45
46199;BME280;31928;52.104;10.030;2023-05-29T04:01:59;101168.78;;;16.07;39.38
46199;BME280;31928;52.104;10.030;2023-05-29T04:04:26;101171.94;;;16.04;39.63
46199;BME280;31928;52.104;10.030;2023-05-29T04:06:53;101174.03;;;16.02;39.57
46199;BME280;31928;52.104;10.030;2023-05-29T04:09:19;101180.50;;;16.01;39.65
46199;BME280;31928;52.104;10.030;2023-05-29T04:11:46;101189.66;;;16.00;39.76
46199;BME280;31928;52.104;10.030;2023-05-29T04:14:12;101192.59;;;15.99;39.70
46199;BME280;31928;52.104;10.030;2023-05-29T04:16:39;101201.78;;;15.98;39.86
46199;BME280;31928;52.104;10.030;2023-05-29T04:19:06;101195.53;;;15.97;39.63
46199;BME280;31928;52.104;10.030;2023-05-29T04:21:32;101194.72;;;15.97;39.83
46199;BME280;31928;52.104;10.030;2023-05-29T04:23:59;101186.00;;;15.95;39.78
46199;BME280;31928;52.104;10.030;2023-05-29T04:26:26;101201.41;;;15.94;40.04
46199;BME280;31928;52.104;10.030;2023-05-29T04:28:52;101194.34;;;15.93;39.68
46199;BME280;31928;52.104;10.030;2023-05-29T04:31:24;101200.56;;;15.94;39.98
46199;BME280;31928;52.104;10.030;2023-05-29T04:33:52;101198.09;;;15.92;40.04
46199;BME280;31928;52.104;10.030;2023-05-29T04:36:22;101200.22;;;15.90;40.03
46199;BME280;31928;52.104;10.030;2023-05-29T04:38:49;101202.94;;;15.90;39.90
46199;BME280;31928;52.104;10.030;2023-05-29T04:41:17;101206.66;;;15.89;40.08
46199;BME280;31928;52.104;10.030;2023-05-29T04:43:44;101198.56;;;15.89;40.20
46199;BME280;31928;52.104;10.030;2023-05-29T04:46:10;101203.16;;;15.89;39.97
46199;BME280;31928;52.104;10.030;2023-05-29T04:48:39;101201.25;;;15.89;40.11
46199;BME280;31928;52.104;10.030;2023-05-29T04:51:10;101194.81;;;15.90;40.12
46199;BME280;31928;52.104;10.030;2023-05-29T04:53:38;101197.50;;;15.90;40.44
46199;BME280;31928;52.104;10.030;2023-05-29T04:56:05;101201.84;;;15.91;40.54
46199;BME280;31928;52.104;10.030;2023-05-29T04:58:31;101205.16;;;15.93;40.22
46199;BME280;31928;52.104;10.030;2023-05-29T05:00:58;101201.41;;;15.94;40.57
46199;BME280;31928;52.104;10.030;2023-05-29T05:03:25;101210.09;;;15.96;40.68
46199;BME280;31928;52.104;10.030;2023-05-29T05:05:51;101209.69;;;15.99;40.26
46199;BME280;31928;52.104;10.030;2023-05-29T05:08:18;101209.22;;;16.02;40.49
46199;BME280;31928;52.104;10.030;2023-05-29T05:10:44;101207.13;;;16.04;40.60
46199;BME280;31928;52.104;10.030;2023-05-29T05:13:11;101217.47;;;16.07;40.80
46199;BME280;31928;52.104;10.030;2023-05-29T05:15:39;101214.31;;;16.10;40.51
46199;BME280;31928;52.104;10.030;2023-05-29T05:18:05;101213.84;;;16.13;40.89
46199;BME280;31928;52.104;10.030;2023-05-29T05:20:33;101207.16;;;16.16;40.87
46199;BME280;31928;52.104;10.030;2023-05-29T05:23:00;101214.59;;;16.20;40.70
46199;BME280;31928;52.104;10.030;2023-05-29T05:25:26;101215.16;;;16.22;40.81
46199;BME280;31928;52.104;10.030;2023-05-29T05:27:53;101213.72;;;16.26;41.00
46199;BME280;31928;52.104;10.030;2023-05-29T05:30:19;101213.03;;;16.30;40.77
46199;BME280;31928;52.104;10.030;2023-05-29T05:32:46;101211.50;;;16.34;40.98
46199;BME280;31928;52.104;10.030;2023-05-29T05:35:13;101207.03;;;16.40;40.78
46199;BME280;31928;52.104;10.030;2023-05-29T05:37:39;101205.31;;;16.45;40.99
46199;BME280;31928;52.104;10.030;2023-05-29T05:40:06;101203.56;;;16.51;40.66
46199;BME280;31928;52.104;10.030;2023-05-29T05:42:33;101200.16;;;16.55;40.93
46199;BME280;31928;52.104;10.030;2023-05-29T05:45:00;101203.84;;;16.61;41.08
46199;BME280;31928;52.104;10.030;2023-05-29T05:47:26;101206.66;;;16.66;40.68
46199;BME280;31928;52.104;10.030;2023-05-29T05:49:54;101195.75;;;16.72;40.65
46199;BME280;31928;52.104;10.030;2023-05-29T05:52:21;101193.97;;;16.78;40.80
46199;BME280;31928;52.104;10.030;2023-05-29T05:54:47;101200.09;;;16.84;40.89
46199;BME280;31928;52.104;10.030;2023-05-29T05:57:14;101202.47;;;16.92;40.74
46199;BME280;31928;52.104;10.030;2023-05-29T05:59:41;101206.97;;;16.98;40.92
46199;BME280;31928;52.104;10.030;2023-05-29T06:02:07;101207.66;;;17.05;40.79
46199;BME280;31928;52.104;10.030;2023-05-29T06:04:35;101199.41;;;17.12;40.67
46199;BME280;31928;52.104;10.030;2023-05-29T06:07:02;101217.22;;;17.19;40.47
46199;BME280;31928;52.104;10.030;2023-05-29T06:09:28;101216.31;;;17.25;40.38
46199;BME280;31928;52.104;10.030;2023-05-29T06:11:55;101215.97;;;17.33;40.61
46199;BME280;31928;52.104;10.030;2023-05-29T06:14:22;101223.72;;;17.41;40.52
46199;BME280;31928;52.104;10.030;2023-05-29T06:16:49;101228.22;;;17.47;40.64
46199;BME280;31928;52.104;10.030;2023-05-29T06:19:17;101230.00;;;17.53;40.22
46199;BME280;31928;52.104;10.030;2023-05-29T06:21:43;101220.88;;;17.59;40.23
46199;BME280;31928;52.104;10.030;2023-05-29T06:24:10;101216.19;;;17.66;40.25
46199;BME280;31928;52.104;10.030;2023-05-29T06:26:36;101213.56;;;17.71;40.45
46199;BME280;31928;52.104;10.030;2023-05-29T06:29:03;101218.03;;;17.77;39.79
46199;BME280;31928;52.104;10.030;2023-05-29T06:31:30;101216.25;;;17.82;40.17
46199;BME280;31928;52.104;10.030;2023-05-29T06:33:57;101223.69;;;17.87;40.43
46199;BME280;31928;52.104;10.030;2023-05-29T06:36:23;101221.66;;;17.94;40.21
46199;BME280;31928;52.104;10.030;2023-05-29T06:38:50;101220.69;;;18.00;40.28
46199;BME280;31928;52.104;10.030;2023-05-29T06:41:16;101227.91;;;18.06;40.35
46199;BME280;31928;52.104;10.030;2023-05-29T06:43:43;101234.00;;;18.12;40.33
46199;BME280;31928;52.104;10.030;2023-05-29T06:46:10;101230.13;;;18.20;40.33
46199;BME280;31928;52.104;10.030;2023-05-29T06:48:37;101232.69;;;18.26;40.17
46199;BME280;31928;52.104;10.030;2023-05-29T06:51:04;101230.63;;;18.33;40.19
46199;BME280;31928;52.104;10.030;2023-05-29T06:53:37;101228.38;;;18.42;40.20
46199;BME280;31928;52.104;10.030;2023-05-29T06:56:04;101229.88;;;18.49;40.08
46199;BME280;31928;52.104;10.030;2023-05-29T06:58:31;101240.34;;;18.57;40.57
46199;BME280;31928;52.104;10.030;2023-05-29T07:00:58;101232.84;;;18.64;40.46
46199;BME280;31928;52.104;10.030;2023-05-29T07:03:29;101238.97;;;18.71;40.13
46199;BME280;31928;52.104;10.030;2023-05-29T07:05:56;101248.59;;;18.78;40.10
46199;BME280;31928;52.104;10.030;2023-05-29T07:08:23;101252.81;;;18.86;40.35
46199;BME280;31928;52.104;10.030;2023-05-29T07:10:49;101256.78;;;18.95;40.01
46199;BME280;31928;52.104;10.030;2023-05-29T07:13:16;101257.47;;;19.02;40.20
46199;BME280;31928;52.104;10.030;2023-05-29T07:15:44;101257.09;;;19.10;39.91
46199;BME280;31928;52.104;10.030;2023-05-29T07:18:11;101264.25;;;19.16;40.01
46199;BME280;31928;52.104;10.030;2023-05-29T07:20:37;101261.13;;;19.24;40.11
46199;BME280;31928;52.104;10.030;2023-05-29T07:23:04;101261.78;;;19.30;40.31
46199;BME280;31928;52.104;10.030;2023-05-29T07:25:31;101262.41;;;19.37;40.28
46199;BME280;31928;52.104;10.030;2023-05-29T07:27:57;101263.91;;;19.45;40.15
46199;BME280;31928;52.104;10.030;2023-05-29T07:30:39;101263.25;;;19.54;40.33
46199;BME280;31928;52.104;10.030;2023-05-29T07:33:06;101274.25;;;19.64;40.17
46199;BME280;31928;52.104;10.030;2023-05-29T07:35:32;101268.97;;;19.74;40.33
46199;BME280;31928;52.104;10.030;2023-05-29T07:37:59;101269.94;;;19.85;39.98
46199;BME280;31928;52.104;10.030;2023-05-29T07:40:26;101278.03;;;19.96;39.99
46199;BME280;31928;52.104;10.030;2023-05-29T07:42:53;101278.16;;;20.06;40.06
46199;BME280;31928;52.104;10.030;2023-05-29T07:45:19;101269.03;;;20.17;40.09
46199;BME280;31928;52.104;10.030;2023-05-29T07:47:46;101270.81;;;20.28;40.02
46199;BME280;31928;52.104;10.030;2023-05-29T07:50:13;101272.84;;;20.37;39.60
46199;BME280;31928;52.104;10.030;2023-05-29T07:52:41;101278.16;;;20.49;39.74
46199;BME280;31928;52.104;10.030;2023-05-29T07:55:08;101276.63;;;20.57;39.83
46199;BME280;31928;52.104;10.030;2023-05-29T07:57:35;101277.56;;;20.68;39.60
46199;BME280;31928;52.104;10.030;2023-05-29T08:00:01;101269.78;;;20.76;39.69
46199;BME280;31928;52.104;10.030;2023-05-29T08:02:34;101276.97;;;20.87;39.49
46199;BME280;31928;52.104;10.030;2023-05-29T08:05:05;101268.63;;;20.99;39.12
46199;BME280;31928;52.104;10.030;2023-05-29T08:07:34;101269.00;;;21.07;39.14
46199;BME280;31928;52.104;10.030;2023-05-29T08:10:01;101270.69;;;21.18;39.38
46199;BME280;31928;52.104;10.030;2023-05-29T08:12:27;101271.06;;;21.26;39.09
46199;BME280;31928;52.104;10.030;2023-05-29T08:14:54;101282.03;;;21.36;39.35
46199;BME280;31928;52.104;10.030;2023-05-29T08:17:21;101272.84;;;21.47;39.06
46199;BME280;31928;52.104;10.030;2023-05-29T08:19:47;101273.78;;;21.58;39.33
46199;BME280;31928;52.104;10.030;2023-05-29T08:22:14;101271.94;;;21.68;39.00
46199;BME280;31928;52.104;10.030;2023-05-29T08:24:41;101277.19;;;21.79;38.93
46199;BME280;31928;52.104;10.030;2023-05-29T08:27:08;101267.16;;;21.90;39.21
46199;BME280;31928;52.104;10.030;2023-05-29T08:29:34;101268.03;;;22.00;39.11
46199;BME280;31928;52.104;10.030;2023-05-29T08:32:03;101269.72;;;22.11;38.99
46199;BME280;31928;52.104;10.030;2023-05-29T08:34:30;101271.41;;;22.22;38.81
46199;BME280;31928;52.104;10.030;2023-05-29T08:36:56;101270.94;;;22.30;38.68
46199;BME280;31928;52.104;10.030;2023-05-29T08:39:23;101274.81;;;22.39;38.60
46199;BME280;31928;52.104;10.030;2023-05-29T08:44:16;101270.47;;;22.58;38.55
46199;BME280;31928;52.104;10.030;2023-05-29T08:46:48;101264.47;;;22.66;38.35
46199;BME280;31928;52.104;10.030;2023-05-29T08:49:16;101275.72;;;22.79;38.42
46199;BME280;31928;52.104;10.030;2023-05-29T08:51:46;101268.38;;;22.90;38.62
46199;BME280;31928;52.104;10.030;2023-05-29T08:54:13;101270.03;;;23.00;38.79
46199;BME280;31928;52.104;10.030;2023-05-29T08:56:40;101268.69;;;23.13;38.44
46199;BME280;31928;52.104;10.030;2023-05-29T08:59:07;101271.16;;;23.24;38.35
46199;BME280;31928;52.104;10.030;2023-05-29T09:01:34;101283.19;;;23.38;38.45
46199;BME280;31928;52.104;10.030;2023-05-29T09:04:02;101272.78;;;23.50;38.29
46199;BME280;31928;52.104;10.030;2023-05-29T09:06:29;101272.22;;;23.58;38.02
46199;BME280;31928;52.104;10.030;2023-05-29T09:08:56;101267.81;;;23.67;37.92
46199;BME280;31928;52.104;10.030;2023-05-29T09:11:23;101267.28;;;23.75;37.84
46199;BME280;31928;52.104;10.030;2023-05-29T09:13:51;101279.31;;;23.84;37.64
46199;BME280;31928;52.104;10.030;2023-05-29T09:16:18;101267.81;;;23.92;37.93
46199;BME280;31928;52.104;10.030;2023-05-29T09:18:45;101273.25;;;24.02;38.01
46199;BME280;31928;52.104;10.030;2023-05-29T09:21:27;101270.47;;;24.12;37.87
46199;BME280;31928;52.104;10.030;2023-05-29T09:23:54;101268.50;;;24.22;37.54
46199;BME280;31928;52.104;10.030;2023-05-29T09:26:21;101266.84;;;24.31;37.94
46199;BME280;31928;52.104;10.030;2023-05-29T09:28:49;101275.56;;;24.43;37.70
46199;BME280;31928;52.104;10.030;2023-05-29T09:31:16;101267.03;;;24.54;37.88
46199;BME280;31928;52.104;10.030;2023-05-29T09:33:49;101269.44;;;24.66;37.71
46199;BME280;31928;52.104;10.030;2023-05-29T09:36:21;101266.34;;;24.77;37.26
46199;BME280;31928;52.104;10.030;2023-05-29T09:38:49;101271.78;;;24.87;37.25
46199;BME280;31928;52.104;10.030;2023-05-29T09:41:24;101276.63;;;25.00;37.52
46199;BME280;31928;52.104;10.030;2023-05-29T09:43:51;101278.19;;;25.11;37.14
46199;BME280;31928;52.104;10.030;2023-05-29T09:46:20;101283.63;;;25.21;37.33
46199;BME280;31928;52.104;10.030;2023-05-29T09:48:47;101286.81;;;25.33;37.09
46199;BME280;31928;52.104;10.030;2023-05-29T09:51:21;101279.59;;;25.42;36.77
46199;BME280;31928;52.104;10.030;2023-05-29T09:53:52;101286.66;;;25.52;36.88
46199;BME280;31928;52.104;10.030;2023-05-29T09:56:20;101281.06;;;25.62;36.58
46199;BME280;31928;52.104;10.030;2023-05-29T09:58:49;101273.56;;;25.73;36.77
46199;BME280;31928;52.104;10.030;2023-05-29T20:17:29;101238.22;;;22.55;29.93
46199;BME280;31928;52.104;10.030;2023-05-29T20:19:56;101243.09;;;22.48;29.84
46199;BME280;31928;52.104;10.030;2023-05-29T20:22:23;101244.19;;;22.42;30.11
46199;BME280;31928;52.104;10.030;2023-05-29T20:24:50;101241.44;;;22.37;30.15
46199;BME280;31928;52.104;10.030;2023-05-29T20:27:17;101243.88;;;22.29;30.36
46199;BME280;31928;52.104;10.030;2023-05-29T20:29:44;101245.72;;;22.23;30.05
46199;BME280;31928;52.104;10.030;2023-05-29T20:32:10;101241.34;;;22.17;30.13
46199;BME280;31928;52.104;10.030;2023-05-29T20:34:37;101247.88;;;22.11;30.15
46199;BME280;31928;52.104;10.030;2023-05-29T20:37:04;101262.59;;;22.05;30.15
46199;BME280;31928;52.104;10.030;2023-05-29T20:39:31;101260.94;;;21.99;30.27
46199;BME280;31928;52.104;10.030;2023-05-29T20:42:01;101268.25;;;21.94;30.42
46199;BME280;31928;52.104;10.030;2023-05-29T20:44:30;101266.63;;;21.88;30.57
46199;BME280;31928;52.104;10.030;2023-05-29T20:46:58;101275.03;;;21.81;30.28
46199;BME280;31928;52.104;10.030;2023-05-29T20:49:24;101277.16;;;21.74;30.50
46199;BME280;31928;52.104;10.030;2023-05-29T20:51:51;101279.03;;;21.69;30.49
46199;BME280;31928;52.104;10.030;2023-05-29T20:54:18;101274.91;;;21.62;30.41
46199;BME280;31928;52.104;10.030;2023-05-29T20:56:45;101270.50;;;21.56;30.79
46199;BME280;31928;52.104;10.030;2023-05-29T20:59:12;101275.31;;;21.49;30.75
46199;BME280;31928;52.104;10.030;2023-05-29T21:01:39;101269.28;;;21.42;30.87
46199;BME280;31928;52.104;10.030;2023-05-29T21:04:07;101275.75;;;21.36;30.83
46199;BME280;31928;52.104;10.030;2023-05-29T21:06:34;101282.25;;;21.30;30.92
46199;BME280;31928;52.104;10.030;2023-05-29T21:09:01;101287.13;;;21.23;30.62
46199;BME280;31928;52.104;10.030;2023-05-29T21:11:31;101286.53;;;21.16;30.70
46199;BME280;31928;52.104;10.030;2023-05-29T21:13:58;101278.56;;;21.10;30.74
46199;BME280;31928;52.104;10.030;2023-05-29T21:16:25;101282.56;;;21.02;30.66
46199;BME280;31928;52.104;10.030;2023-05-29T21:18:52;101284.66;;;20.95;30.69
46199;BME280;31928;52.104;10.030;2023-05-29T21:21:18;101287.88;;;20.87;30.87
46199;BME280;31928;52.104;10.030;2023-05-29T21:23:45;101286.19;;;20.81;30.73
46199;BME280;31928;52.104;10.030;2023-05-29T21:26:12;101293.72;;;20.74;31.00
46199;BME280;31928;52.104;10.030;2023-05-29T21:28:39;101298.53;;;20.67;30.79
46199;BME280;31928;52.104;10.030;2023-05-29T21:31:05;101299.56;;;20.61;30.88
46199;BME280;31928;52.104;10.030;2023-05-29T21:33:34;101309.00;;;20.54;31.02
46199;BME280;31928;52.104;10.030;2023-05-29T21:36:01;101313.00;;;20.47;31.12
46199;BME280;31928;52.104;10.030;2023-05-29T21:38:27;101309.91;;;20.38;31.03
46199;BME280;31928;52.104;10.030;2023-05-29T21:40:54;101321.00;;;20.32;31.56
46199;BME280;31928;52.104;10.030;2023-05-29T21:43:21;101324.72;;;20.26;31.03
46199;BME280;31928;52.104;10.030;2023-05-29T21:45:48;101320.78;;;20.17;31.46
46199;BME280;31928;52.104;10.030;2023-05-29T21:48:15;101316.59;;;20.09;31.33
46199;BME280;31928;52.104;10.030;2023-05-29T21:50:41;101317.88;;;20.02;31.22
46199;BME280;31928;52.104;10.030;2023-05-29T21:53:08;101318.28;;;19.94;31.78
46199;BME280;31928;52.104;10.030;2023-05-29T21:55:34;101324.72;;;19.88;31.55
46199;BME280;31928;52.104;10.030;2023-05-29T21:58:01;101327.84;;;19.80;31.59
46199;BME280;31928;52.104;10.030;2023-05-29T22:00:28;101337.00;;;19.74;31.44
46199;BME280;31928;52.104;10.030;2023-05-29T22:02:59;101339.91;;;19.68;31.33
46199;BME280;31928;52.104;10.030;2023-05-29T22:05:26;101343.03;;;19.60;31.44
46199;BME280;31928;52.104;10.030;2023-05-29T22:07:53;101347.81;;;19.53;31.33
46199;BME280;31928;52.104;10.030;2023-05-29T22:10:20;101347.97;;;19.46;31.41
46199;BME280;31928;52.104;10.030;2023-05-29T22:12:47;101348.97;;;19.40;31.65
46199;BME280;31928;52.104;10.030;2023-05-29T22:15:15;101353.72;;;19.33;31.63
46199;BME280;31928;52.104;10.030;2023-05-29T22:17:44;101354.75;;;19.28;31.86
46199;BME280;31928;52.104;10.030;2023-05-29T22:20:12;101344.03;;;19.21;32.16
46199;BME280;31928;52.104;10.030;2023-05-29T22:22:41;101351.25;;;19.16;31.95
46199;BME280;31928;52.104;10.030;2023-05-29T22:25:09;101352.22;;;19.10;32.04
46199;BME280;31928;52.104;10.030;2023-05-29T22:27:39;101361.56;;;19.02;32.14
46199;BME280;31928;52.104;10.030;2023-05-29T22:30:07;101365.50;;;18.95;31.87
46199;BME280;31928;52.104;10.030;2023-05-29T22:32:35;101368.00;;;18.85;32.17
46199;BME280;31928;52.104;10.030;2023-05-29T22:35:04;101372.44;;;18.74;32.46
46199;BME280;31928;52.104;10.030;2023-05-29T22:37:31;101363.00;;;18.66;32.49
46199;BME280;31928;52.104;10.030;2023-05-29T22:39:58;101372.59;;;18.57;32.23
46199;BME280;31928;52.104;10.030;2023-05-29T22:42:24;101369.69;;;18.47;31.97
46199;BME280;31928;52.104;10.030;2023-05-29T22:44:51;101361.09;;;18.38;31.91
46199;BME280;31928;52.104;10.030;2023-05-29T22:47:17;101354.00;;;18.26;32.35
46199;BME280;31928;52.104;10.030;2023-05-29T22:49:44;101355.44;;;18.17;32.92
46199;BME280;31928;52.104;10.030;2023-05-29T22:52:11;101359.34;;;18.09;32.13
46199;BME280;31928;52.104;10.030;2023-05-29T22:54:39;101352.84;;;17.99;32.17
46199;BME280;31928;52.104;10.030;2023-05-29T22:57:05;101360.53;;;17.91;32.25
46199;BME280;31928;52.104;10.030;2023-05-29T22:59:32;101358.16;;;17.83;32.39
46199;BME280;31928;52.104;10.030;2023-05-29T23:01:59;101357.44;;;17.76;32.25
46199;BME280;31928;52.104;10.030;2023-05-29T23:04:26;101351.31;;;17.69;32.64
46199;BME280;31928;52.104;10.030;2023-05-29T23:06:53;101354.97;;;17.63;32.63